x

Bay Of Campeche - 214 Nm Ne Of Veracruz, Mx (42055) Wave Buoy

3:50pm - Tue 28th Apr 2015 All times are UTC.

  • Sig Wave height 3.9ft
  • Swell Direction
  • Peak Period 6s
  • Average Period 5s
  • Wind
    16mph, 18mph gusts
  • Sea Temp 82°f
  • Air Temp 82°f
  • Sea Pressure 1006.7mb

More Historic Weather Station data

Upgrade to MSW Pro to gain access to the past 30 days of data for over 8000 Wavebouys and Weather Stations around the globe.

Join Pro

Comparision Forecast

View Surf forecast
   
Tue 04/28 3:50pm 4ft 6s 5s 16 18 mph 1006.7mb 82f 82f
2:50pm 4ft 7s 5s 13
mph
1006.6mb 82f 82f
1:50pm 3.5ft 6s 5s 9 11 mph 1005.9mb 82f 82f
12:50pm 3.5ft 6s 5s 7 9 mph 1005.3mb 82f 82f
11:50am 3.5ft 7s 5s 11 13 mph 1004.5mb 82f 82f
10:50am 3.5ft 6s 6s 13 16 mph 1003.7mb 83f 82f
9:50am 3.5ft 6s 5s 9 11 mph 1003.3mb 83f 82f
8:50am 3.5ft 7s 5s 2 4 mph 1003mb 83f 82f
7:50am 3.5ft 6s 5s  -  2 mph 1003.1mb 83f 82f
6:50am 3.5ft 6s 5s  -  2 mph 1003.4mb 83f 82f
5:50am 3.5ft 6s 5s 7
mph
1003.8mb 83f 82f
4:50am 3.5ft 7s 5s 7 9 mph 1003.8mb 83f 82f
3:50am 4ft 6s 5s 7 9 mph 1003.6mb 82f 82f
2:50am 4ft 5s 5s 7 9 mph 1003.4mb 83f 82f
1:50am 4.5ft 6s 5s 4 7 mph 1002.6mb 83f 82f
12:50am 4.5ft 6s 5s  -  2 mph 1001.7mb 83f 83f
Mon 04/27 11:50pm 4.5ft 6s 5s 2
mph
1001.3mb 83f 84f
10:50pm 4ft 6s 5s 4 7 mph 1000.6mb 83f 84f
9:50pm 3.5ft 6s 5s 9
mph
1000.5mb 83f 84f
8:50pm 3.5ft 6s 4s 9 11 mph 1000.6mb 82f 83f
7:50pm 3.5ft 6s 4s 11 13 mph 1000.6mb 82f 83f
6:50pm 4ft 6s 5s 11 13 mph 1001.6mb 82f 83f
5:50pm 4ft 6s 5s 13 16 mph 1002.1mb 82f 83f
4:50pm 4ft 6s 5s 18 22 mph 1002mb 82f 83f
3:50pm 4.5ft 6s 5s 18 20 mph 1002.5mb 82f 83f
2:50pm 4ft 6s 5s 20 22 mph 1002mb 82f 83f
1:50pm 4ft 7s 5s 18 22 mph 1001.8mb 82f 83f
12:50pm 4ft 6s 5s 20 22 mph 1001.8mb 82f 82f
11:50am 3.5ft 6s 5s 20 25 mph 1001.1mb 82f 82f
10:50am 3.5ft 7s 5s 18 20 mph 1001.1mb 82f 82f
9:50am 3.5ft 7s 5s 16 20 mph 1001.2mb 82f 82f
8:50am 3.5ft 7s 5s 11 16 mph 1001.3mb 82f 82f
7:50am 4ft 7s 5s 13 18 mph 1001.8mb 82f 82f
6:50am 4ft 7s 5s 4 7 mph 1002.1mb 82f 82f
5:50am 4.5ft 7s 5s 7 9 mph 1002.4mb 82f 82f
4:50am 4.5ft 7s 5s 13 16 mph 1002.2mb 82f 82f
3:50am 4.5ft 7s 5s 18 20 mph 1002.1mb 82f 82f
2:50am 4ft 7s 5s 16 18 mph 1002.6mb 82f 82f
1:50am 3.5ft 6s 5s 13 16 mph 1002.9mb 82f 82f
12:50am 4ft 6s 5s 11 13 mph 1002.6mb 82f 82f
Sun 04/26 11:50pm 4ft 5s 4s 11 13 mph 1002.4mb 82f 82f
10:50pm 4ft 5s 4s 9 13 mph 1002.6mb 82f 82f
9:50pm 4ft 5s 4s 16 18 mph 1002.4mb 82f 82f
8:50pm 4ft 5s 4s 16 20 mph 1003mb 82f 82f
7:50pm 4ft 5s 4s 16 18 mph 1004mb 82f 82f
6:50pm 3.5ft 5s 4s 20 22 mph 1004.5mb 82f 82f
5:50pm 3.5ft 4s 4s 22 27 mph 1004.9mb 82f 83f
4:50pm 3ft 4s 4s 22 29 mph 1005.6mb 82f 83f
3:50pm 3ft 6s 4s 20 22 mph 1006.3mb 82f 83f
2:50pm 3.5ft 6s 4s 16 20 mph 1006.5mb 81f 82f
1:50pm 3.5ft 6s 4s 13 16 mph 1006.5mb 81f 82f
12:50pm 3.5ft 6s 4s 16 18 mph 1006mb 81f 81f
11:50am 3.5ft 6s 4s 16 20 mph 1005.3mb 81f 81f
10:50am 3.5ft 7s 5s 18 20 mph 1004.9mb 81f 81f
9:50am 3.5ft 7s 5s 16 20 mph 1004.9mb 81f 81f
8:50am 4.5ft 7s 5s 11 13 mph 1005.4mb 81f 81f
7:50am 4ft 7s 5s 9 11 mph 1005.6mb 81f 81f
6:50am 4.5ft 7s 6s 9 11 mph 1005.9mb 82f 81f
5:50am 4.5ft 7s 5s 9 11 mph 1006.4mb 82f 81f
4:50am 5ft 7s 6s 11 13 mph 1006.6mb 82f 81f
3:50am 4.5ft 7s 6s 9 11 mph 1006.8mb 82f 81f
2:50am 4ft 6s 5s 9 11 mph 1006.4mb 82f 81f
1:50am 4ft 6s 5s 13 16 mph 1005.6mb 82f 81f
12:50am 4ft 6s 5s 11 13 mph 1005.6mb 82f 82f
Sat 04/25 11:50pm 4ft 6s 5s 13 16 mph 1005.4mb 82f 82f
10:50pm 4ft 6s 5s 13 16 mph 1005.4mb 82f 82f
9:50pm 4ft 6s 5s 16 18 mph 1005.3mb 82f 82f
8:50pm 4ft 5s 4s 16 18 mph 1006.1mb 82f 82f
7:50pm 3.5ft 5s 4s 18 22 mph 1006.7mb 82f 82f
6:50pm 3.5ft 5s 4s 16 20 mph 1007.4mb 82f 82f
5:50pm 3.5ft 6s 4s 18 22 mph 1007.9mb 82f 82f
4:50pm 3.5ft 5s 4s 16 20 mph 1008.7mb 81f 83f
3:50pm 3.5ft 6s 4s 18 22 mph 1008.6mb 81f 83f
2:50pm 3.5ft 6s 4s 20 22 mph 1008.5mb 81f 82f
1:50pm 3ft 6s 4s 18 20 mph 1008.9mb 81f 82f
12:50pm 3.5ft 6s 5s 13 16 mph 1009.1mb 81f 82f
11:50am 3.5ft 6s 5s 11 13 mph 1009mb 81f 81f
10:50am 3.5ft 6s 5s 13 16 mph 1008.2mb 81f 81f
9:50am 3.5ft 6s 5s 13 16 mph 1007.9mb 81f 81f
8:50am 3.5ft 6s 4s 16 18 mph 1007.9mb 81f 81f
7:50am 3.5ft 6s 4s 18 20 mph 1008.2mb 81f 81f
6:50am 3.5ft 6s 4s 22 27 mph 1008mb 82f 81f
5:50am 2.5ft 5s 4s 18 20 mph 1007.9mb 82f 81f
4:50am 2.5ft 5s 4s 11 13 mph 1008mb 82f 80f
3:50am 2.5ft 5s 4s 11 13 mph 1008.5mb 82f 80f
2:50am 2.5ft 5s 4s 11 13 mph 1008.2mb 82f 81f
1:50am 2.5ft 4s 4s 13 16 mph 1008.1mb 82f 81f
12:50am 3ft 5s 4s 13 16 mph 1007.7mb 82f 81f
Fri 04/24 11:50pm 3ft 5s 4s 16
mph
1007.4mb 82f 82f
10:50pm 3ft 6s 4s 16 18 mph 1007.4mb 82f 82f
9:50pm 3ft 5s 4s 16 20 mph 1007.7mb 82f 82f
8:50pm 2.5ft 5s 4s 16 18 mph 1008.4mb 82f 82f
7:50pm 2.5ft 5s 4s 11 13 mph 1009.5mb 82f 82f
6:50pm 3ft 5s 4s 11 13 mph 1010.2mb 82f 82f
5:50pm 3ft 6s 5s 11 13 mph 1010.9mb 82f 82f